x

Half Moon Bay - 24nm Ssw Of San Francisco, Ca (46012) Wave Buoy

2:50am - Sun 24th Sep 2017 All times are PDT. -7 hours from GMT.

  • Sig Wave height 5.6ft
  • Swell Direction
  • Peak Period 8s
  • Average Period 7s
  • Wind
    11mph, 13mph gusts
  • Sea Temp 61°f
  • Air Temp 60°f
  • Sea Pressure 1012.5mb
  • Half Moon Bay - 24nm Ssw Of San Francisco, Ca
  • Half Moon Bay - 24nm Ssw Of San Francisco, Ca

More Historic Weather Station data

Upgrade to MSW Pro to gain access to the past 30 days of data for over 8000 Wavebouys and Weather Stations around the globe.

Join

Comparision Forecast

View Surf forecast
   
Sun 09/24 2:50am 5.5ft 8s 7s 11 13 mph 1012.5mb 61f 60f
1:50am 6ft 9s 6s 9 11 mph 1012.5mb 61f 60f
12:50am 6ft 9s 7s 9 11 mph 1012.4mb 61f 60f
Sat 09/23 11:50pm 6ft 8s 6s 7 9 mph 1012.7mb 61f 60f
10:50pm 6ft 10s 6s 9 11 mph 1012.8mb 62f 61f
9:50pm 6ft 9s 6s 13 18 mph 1012.7mb 62f 61f
8:50pm 6ft 10s 6s 18 20 mph 1012.3mb 61f 61f
7:50pm 6ft 9s 6s 20 25 mph 1012mb 61f 61f
6:50pm 7ft 9s 7s 20 22 mph 1012.2mb 62f 61f
5:50pm 6ft 10s 7s 18 20 mph 1012.4mb 62f 62f
4:50pm 5.5ft 9s 6s 20 25 mph 1012.5mb 62f 62f
3:50pm 6ft 10s 7s 18 20 mph 1012.5mb 62f 62f
2:50pm 6ft 10s 7s 16 20 mph 1012.7mb 62f 62f
1:50pm 5.5ft 10s 7s 13 16 mph 1013mb 62f 62f
12:50pm 7ft 10s 7s 11 13 mph 1013.4mb 62f 61f
11:50am 6ft 10s 7s 11 13 mph 1013.6mb 61f 61f
10:50am 6.5ft 11s 7s 9 9 mph 1013.7mb 61f 61f
9:50am 6.5ft 11s 7s 9 11 mph 1013.4mb 61f 61f
8:50am 6.5ft 9s 7s 11 13 mph 1012.9mb 61f 60f
7:50am 7ft 10s 7s 13 16 mph 1012.5mb 61f 60f
6:50am 6.5ft 9s 7s 13 16 mph 1012.1mb 61f 60f
5:50am 6ft 8s 6s 13 16 mph 1011.8mb 61f 60f
4:50am 6ft 11s 7s 13 16 mph 1011.7mb 61f 60f
3:50am 7ft 11s 7s 16 20 mph 1011.8mb 61f 60f
2:50am 7ft 11s 7s 18 20 mph 1011.7mb 62f 60f
1:50am 7ft 11s 7s 18 22 mph 1011.9mb 61f 60f
12:50am 7ft 11s 7s 16 20 mph 1012.1mb 61f 60f
Fri 09/22 11:50pm 6.5ft 11s 7s 13 16 mph 1012.3mb 61f 60f
10:50pm 7ft 10s 8s 13 16 mph 1012.3mb 61f 60f
9:50pm 6ft 11s 7s 11 13 mph 1012.6mb 61f 60f
8:50pm 6ft 11s 8s 11 13 mph 1012.4mb 61f 59f
7:50pm 6ft 11s 8s 11 13 mph 1012.3mb 61f 59f
6:50pm 5.5ft 11s 7s 13 16 mph 1012.2mb 62f 60f
5:50pm 6ft 11s 8s 11 13 mph 1012.4mb 62f 60f
4:50pm 6.5ft 11s 8s 13 16 mph 1012.6mb 62f 60f
3:50pm 5.5ft 11s 8s 11 13 mph 1012.7mb 62f 60f
2:50pm 6ft 10s 8s 11 13 mph 1012.8mb 62f 60f
1:50pm 6ft 11s 8s 9 11 mph 1013mb 62f 60f
12:50pm 6ft 11s 7s 9 13 mph 1013.4mb 62f 60f
11:50am 6ft 10s 8s 9 13 mph 1013.7mb 62f 60f
10:50am 6ft 11s 7s 9 11 mph 1013.7mb 61f 60f
9:50am 6ft 11s 7s 7 9 mph 1013.3mb 61f 60f
8:50am 6ft 11s 7s 7 9 mph 1012.9mb 61f 61f
7:50am 7ft 10s 8s 7 9 mph 1012.5mb 61f 60f
6:50am 7ft 10s 8s 9 11 mph 1012.3mb 61f 60f
5:50am 6ft 10s  -  11 13 mph 1012mb 61f 60f
4:50am 6ft 10s 7s 11 16 mph 1011.9mb 61f 60f
3:50am 7ft 10s 8s 11 13 mph 1011.9mb 61f 60f
2:50am 6.5ft 11s 7s 11 13 mph 1012.2mb 61f 60f
1:50am 8ft 11s 7s 9 11 mph 1012.6mb 61f 60f
12:50am 7ft 9s 7s 9 13 mph 1012.8mb 61f 60f
Thu 09/21 11:50pm 7.5ft 11s 7s 13 18 mph 1012.9mb 61f 60f
10:50pm 7.5ft 11s 7s 13 16 mph 1012.9mb 61f 61f
9:50pm 7.5ft 11s 7s 13 20 mph 1013.2mb 61f 61f
8:50pm 8ft 11s 7s 16 20 mph 1012.9mb 61f 61f
7:50pm 8ft 11s 6s 20 25 mph 1012.6mb 61f 61f
6:50pm 9ft 11s 7s 22 27 mph 1012.6mb 61f 61f
5:50pm 8ft 11s 7s 22 29 mph 1012.9mb 61f 61f
4:50pm 8ft 11s 7s 22 27 mph 1012.5mb 61f 61f
3:50pm 7ft 11s 6s 20 27 mph 1012.7mb 62f 61f
2:50pm 7ft 11s 6s 20 25 mph 1012.6mb 62f 60f
1:50pm 8ft 11s 7s 22 27 mph 1012.8mb 62f 60f
12:50pm 8ft 12s 7s 20 25 mph 1013mb 62f 60f
11:50am 7.5ft 11s 7s 20 25 mph 1013.2mb 62f 60f
10:50am 8ft 11s 7s 20 25 mph 1013mb 62f 60f
9:50am 7ft 11s 6s 20 25 mph 1013mb 61f 60f
8:50am 7ft 11s 6s 20 25 mph 1012.5mb 61f 60f
7:50am 7ft 10s 6s 20 22 mph 1012.1mb 61f 60f
6:50am 7ft 11s 7s 20 25 mph 1011.7mb 61f 60f
5:50am 6.5ft 11s 7s 20 25 mph 1011.5mb 62f 60f
4:50am 6.5ft 11s 7s 18 22 mph 1011.7mb 62f 60f
3:50am 7ft 11s 7s 18 22 mph 1011.7mb 62f 61f
2:50am 6ft 11s 7s 18 22 mph 1011.9mb 62f 61f
1:50am 7.5ft 12s 7s 18 22 mph 1012.1mb 62f 61f
12:50am 7ft 11s 8s 16 18 mph 1012.1mb 62f 61f
Wed 09/20 11:50pm 6.5ft 12s 8s 16 20 mph 1012.1mb 62f 61f
10:50pm 7ft 13s 8s 13 18 mph 1011.9mb 62f 62f
9:50pm 7ft 12s 8s 16 18 mph 1012mb 62f 62f
8:50pm 6.5ft 13s 8s 13 16 mph 1011.8mb 62f 62f
7:50pm 6.5ft 11s 8s 13 16 mph 1011.7mb 62f 62f
6:50pm 6.5ft 11s 8s 11 13 mph 1011.9mb 62f 62f
5:50pm 6.5ft 11s 8s 11 13 mph 1012mb 62f 63f
4:50pm 7ft 11s 8s 13 18 mph 1012.1mb 62f 63f
3:50pm 7ft 12s 9s 11 13 mph 1012.4mb 62f 63f
2:50pm 7ft 13s 9s 11 13 mph 1012.7mb 62f 63f
1:50pm 8ft 13s 8s 9 11 mph 1013mb 62f 63f
12:50pm 7ft 13s 8s 9 11 mph 1013.5mb 62f 63f
11:50am 7.5ft 13s 9s 9 9 mph 1014mb 62f 62f